sensor_id;sensor_type;location;lat;lon;timestamp;P1;durP1;ratioP1;P2;durP2;ratioP2
37529;SDS011;23374;52.758;6.872;2023-04-01T00:01:04;4.97;;;2.30;;
37529;SDS011;23374;52.758;6.872;2023-04-01T00:03:25;5.43;;;1.83;;
37529;SDS011;23374;52.758;6.872;2023-04-01T00:05:46;5.83;;;2.10;;
37529;SDS011;23374;52.758;6.872;2023-04-01T00:08:07;4.77;;;2.37;;
37529;SDS011;23374;52.758;6.872;2023-04-01T00:10:28;4.43;;;2.07;;
37529;SDS011;23374;52.758;6.872;2023-04-01T00:12:48;3.50;;;2.27;;
37529;SDS011;23374;52.758;6.872;2023-04-01T00:15:09;5.93;;;3.00;;
37529;SDS011;23374;52.758;6.872;2023-04-01T00:17:30;3.63;;;2.10;;
37529;SDS011;23374;52.758;6.872;2023-04-01T00:19:51;5.10;;;2.50;;
37529;SDS011;23374;52.758;6.872;2023-04-01T00:22:11;5.73;;;2.00;;
37529;SDS011;23374;52.758;6.872;2023-04-01T00:24:32;2.90;;;1.90;;
37529;SDS011;23374;52.758;6.872;2023-04-01T00:26:52;5.00;;;2.77;;
37529;SDS011;23374;52.758;6.872;2023-04-01T00:29:12;3.17;;;1.90;;
37529;SDS011;23374;52.758;6.872;2023-04-01T00:31:33;3.97;;;1.97;;
37529;SDS011;23374;52.758;6.872;2023-04-01T00:33:54;5.67;;;2.10;;
37529;SDS011;23374;52.758;6.872;2023-04-01T00:36:17;2.93;;;1.90;;
37529;SDS011;23374;52.758;6.872;2023-04-01T00:38:39;4.23;;;2.30;;
37529;SDS011;23374;52.758;6.872;2023-04-01T00:41:01;3.67;;;2.10;;
37529;SDS011;23374;52.758;6.872;2023-04-01T00:43:22;2.97;;;2.00;;
37529;SDS011;23374;52.758;6.872;2023-04-01T00:45:44;4.60;;;2.20;;
37529;SDS011;23374;52.758;6.872;2023-04-01T00:48:08;6.30;;;2.40;;
37529;SDS011;23374;52.758;6.872;2023-04-01T00:50:33;3.40;;;2.17;;
37529;SDS011;23374;52.758;6.872;2023-04-01T00:52:55;3.93;;;1.90;;
37529;SDS011;23374;52.758;6.872;2023-04-01T00:55:16;8.40;;;2.40;;
37529;SDS011;23374;52.758;6.872;2023-04-01T00:57:39;3.60;;;2.40;;
37529;SDS011;23374;52.758;6.872;2023-04-01T01:00:05;3.00;;;1.93;;
37529;SDS011;23374;52.758;6.872;2023-04-01T01:02:29;3.30;;;2.17;;
37529;SDS011;23374;52.758;6.872;2023-04-01T01:04:52;2.87;;;1.50;;
37529;SDS011;23374;52.758;6.872;2023-04-01T01:10:23;2.57;;;1.73;;
37529;SDS011;23374;52.758;6.872;2023-04-01T01:19:02;1.60;;;1.20;;
37529;SDS011;23374;52.758;6.872;2023-04-01T01:22:29;3.30;;;1.30;;
37529;SDS011;23374;52.758;6.872;2023-04-01T01:26:55;5.73;;;1.93;;
37529;SDS011;23374;52.758;6.872;2023-04-01T01:38:57;3.53;;;1.97;;
37529;SDS011;23374;52.758;6.872;2023-04-01T01:41:18;4.47;;;2.03;;
37529;SDS011;23374;52.758;6.872;2023-04-01T01:43:41;2.27;;;1.30;;
37529;SDS011;23374;52.758;6.872;2023-04-01T01:46:07;3.87;;;1.67;;
37529;SDS011;23374;52.758;6.872;2023-04-01T01:48:40;3.77;;;2.00;;
37529;SDS011;23374;52.758;6.872;2023-04-01T01:51:04;4.27;;;2.23;;
37529;SDS011;23374;52.758;6.872;2023-04-01T01:53:25;5.03;;;2.30;;
37529;SDS011;23374;52.758;6.872;2023-04-01T01:55:46;2.40;;;1.90;;
37529;SDS011;23374;52.758;6.872;2023-04-01T01:58:20;5.70;;;2.30;;
37529;SDS011;23374;52.758;6.872;2023-04-01T02:00:59;2.80;;;2.13;;
37529;SDS011;23374;52.758;6.872;2023-04-01T02:03:24;3.33;;;2.23;;
37529;SDS011;23374;52.758;6.872;2023-04-01T02:05:47;5.63;;;2.30;;
37529;SDS011;23374;52.758;6.872;2023-04-01T02:08:28;6.07;;;2.30;;
37529;SDS011;23374;52.758;6.872;2023-04-01T02:11:06;3.83;;;2.23;;
37529;SDS011;23374;52.758;6.872;2023-04-01T02:13:33;7.57;;;2.40;;
37529;SDS011;23374;52.758;6.872;2023-04-01T02:16:00;3.17;;;2.23;;
37529;SDS011;23374;52.758;6.872;2023-04-01T02:18:27;4.37;;;2.37;;
37529;SDS011;23374;52.758;6.872;2023-04-01T02:20:49;7.17;;;2.30;;
37529;SDS011;23374;52.758;6.872;2023-04-01T02:23:11;4.13;;;2.40;;
37529;SDS011;23374;52.758;6.872;2023-04-01T02:25:34;5.77;;;2.10;;
37529;SDS011;23374;52.758;6.872;2023-04-01T02:27:57;5.17;;;2.20;;
37529;SDS011;23374;52.758;6.872;2023-04-01T02:30:19;4.17;;;2.33;;
37529;SDS011;23374;52.758;6.872;2023-04-01T02:32:40;3.53;;;2.00;;
37529;SDS011;23374;52.758;6.872;2023-04-01T02:35:02;5.13;;;2.40;;
37529;SDS011;23374;52.758;6.872;2023-04-01T02:37:25;4.80;;;2.37;;
37529;SDS011;23374;52.758;6.872;2023-04-01T02:39:45;6.93;;;2.70;;
37529;SDS011;23374;52.758;6.872;2023-04-01T02:42:06;4.53;;;2.40;;
37529;SDS011;23374;52.758;6.872;2023-04-01T02:44:26;4.63;;;2.37;;
37529;SDS011;23374;52.758;6.872;2023-04-01T02:46:47;4.33;;;2.57;;
37529;SDS011;23374;52.758;6.872;2023-04-01T02:49:07;3.00;;;2.00;;
37529;SDS011;23374;52.758;6.872;2023-04-01T02:51:28;5.27;;;2.60;;
37529;SDS011;23374;52.758;6.872;2023-04-01T02:53:48;2.23;;;1.60;;
37529;SDS011;23374;52.758;6.872;2023-04-01T02:56:08;3.53;;;2.33;;
37529;SDS011;23374;52.758;6.872;2023-04-01T02:58:29;4.80;;;2.80;;
37529;SDS011;23374;52.758;6.872;2023-04-01T03:00:49;3.43;;;2.20;;
37529;SDS011;23374;52.758;6.872;2023-04-01T03:03:10;3.57;;;2.00;;
37529;SDS011;23374;52.758;6.872;2023-04-01T03:05:32;4.70;;;2.37;;
37529;SDS011;23374;52.758;6.872;2023-04-01T03:07:52;4.73;;;2.57;;
37529;SDS011;23374;52.758;6.872;2023-04-01T03:10:13;1.90;;;1.23;;
37529;SDS011;23374;52.758;6.872;2023-04-01T03:12:34;6.93;;;2.73;;
37529;SDS011;23374;52.758;6.872;2023-04-01T03:14:54;5.50;;;2.40;;
37529;SDS011;23374;52.758;6.872;2023-04-01T03:17:14;3.80;;;2.37;;
37529;SDS011;23374;52.758;6.872;2023-04-01T03:19:34;4.83;;;2.70;;
37529;SDS011;23374;52.758;6.872;2023-04-01T03:21:55;3.60;;;2.13;;
37529;SDS011;23374;52.758;6.872;2023-04-01T03:24:15;4.20;;;2.60;;
37529;SDS011;23374;52.758;6.872;2023-04-01T03:26:35;5.27;;;2.27;;
37529;SDS011;23374;52.758;6.872;2023-04-01T03:28:55;7.07;;;2.67;;
37529;SDS011;23374;52.758;6.872;2023-04-01T03:31:16;6.73;;;2.23;;
37529;SDS011;23374;52.758;6.872;2023-04-01T03:33:36;4.67;;;2.23;;
37529;SDS011;23374;52.758;6.872;2023-04-01T03:35:57;4.40;;;2.13;;
37529;SDS011;23374;52.758;6.872;2023-04-01T03:38:18;2.43;;;1.67;;
37529;SDS011;23374;52.758;6.872;2023-04-01T03:40:42;3.00;;;2.13;;
37529;SDS011;23374;52.758;6.872;2023-04-01T03:43:02;2.87;;;1.90;;
37529;SDS011;23374;52.758;6.872;2023-04-01T03:45:26;3.73;;;2.40;;
37529;SDS011;23374;52.758;6.872;2023-04-01T03:47:46;2.60;;;1.90;;
37529;SDS011;23374;52.758;6.872;2023-04-01T03:50:07;3.73;;;1.90;;
37529;SDS011;23374;52.758;6.872;2023-04-01T03:52:28;3.40;;;2.03;;
37529;SDS011;23374;52.758;6.872;2023-04-01T03:54:49;2.77;;;1.93;;
37529;SDS011;23374;52.758;6.872;2023-04-01T03:57:09;4.13;;;2.27;;
37529;SDS011;23374;52.758;6.872;2023-04-01T03:59:29;5.50;;;2.20;;
37529;SDS011;23374;52.758;6.872;2023-04-01T04:01:51;4.37;;;2.20;;
37529;SDS011;23374;52.758;6.872;2023-04-01T04:04:11;4.10;;;2.20;;
37529;SDS011;23374;52.758;6.872;2023-04-01T04:06:35;3.47;;;2.03;;
37529;SDS011;23374;52.758;6.872;2023-04-01T04:08:56;5.00;;;2.07;;
37529;SDS011;23374;52.758;6.872;2023-04-01T04:11:16;3.17;;;1.73;;
37529;SDS011;23374;52.758;6.872;2023-04-01T04:13:37;2.90;;;1.43;;
37529;SDS011;23374;52.758;6.872;2023-04-01T04:15:58;2.70;;;1.80;;
37529;SDS011;23374;52.758;6.872;2023-04-01T04:18:19;3.27;;;1.83;;
37529;SDS011;23374;52.758;6.872;2023-04-01T04:20:45;2.93;;;1.77;;
37529;SDS011;23374;52.758;6.872;2023-04-01T04:23:09;4.90;;;2.23;;
37529;SDS011;23374;52.758;6.872;2023-04-01T04:25:29;3.33;;;2.10;;
37529;SDS011;23374;52.758;6.872;2023-04-01T04:27:50;2.10;;;1.50;;
37529;SDS011;23374;52.758;6.872;2023-04-01T04:30:10;3.60;;;1.77;;
37529;SDS011;23374;52.758;6.872;2023-04-01T04:32:31;3.83;;;1.90;;
37529;SDS011;23374;52.758;6.872;2023-04-01T04:34:51;3.83;;;1.90;;
37529;SDS011;23374;52.758;6.872;2023-04-01T04:37:11;2.60;;;1.80;;
37529;SDS011;23374;52.758;6.872;2023-04-01T04:39:32;2.90;;;1.57;;
37529;SDS011;23374;52.758;6.872;2023-04-01T04:41:52;3.67;;;1.90;;
37529;SDS011;23374;52.758;6.872;2023-04-01T04:44:12;3.80;;;1.87;;
37529;SDS011;23374;52.758;6.872;2023-04-01T04:46:32;3.20;;;2.13;;
37529;SDS011;23374;52.758;6.872;2023-04-01T04:48:53;3.10;;;2.00;;
37529;SDS011;23374;52.758;6.872;2023-04-01T04:51:18;5.53;;;2.70;;
37529;SDS011;23374;52.758;6.872;2023-04-01T04:55:09;6.00;;;2.60;;
37529;SDS011;23374;52.758;6.872;2023-04-01T04:57:29;4.63;;;2.67;;
37529;SDS011;23374;52.758;6.872;2023-04-01T04:59:50;5.20;;;2.23;;
37529;SDS011;23374;52.758;6.872;2023-04-01T05:02:10;4.30;;;2.60;;
37529;SDS011;23374;52.758;6.872;2023-04-01T05:04:34;4.47;;;2.40;;
37529;SDS011;23374;52.758;6.872;2023-04-01T05:06:56;4.37;;;2.70;;
37529;SDS011;23374;52.758;6.872;2023-04-01T05:09:17;6.27;;;3.20;;
37529;SDS011;23374;52.758;6.872;2023-04-01T05:11:37;5.83;;;2.80;;
37529;SDS011;23374;52.758;6.872;2023-04-01T05:13:57;6.70;;;3.13;;
37529;SDS011;23374;52.758;6.872;2023-04-01T05:16:19;5.17;;;3.17;;
37529;SDS011;23374;52.758;6.872;2023-04-01T05:18:40;8.07;;;3.10;;
37529;SDS011;23374;52.758;6.872;2023-04-01T05:21:00;6.73;;;3.53;;
37529;SDS011;23374;52.758;6.872;2023-04-01T05:23:21;6.93;;;3.80;;
37529;SDS011;23374;52.758;6.872;2023-04-01T05:25:42;7.03;;;3.53;;
37529;SDS011;23374;52.758;6.872;2023-04-01T05:28:04;9.20;;;4.80;;
37529;SDS011;23374;52.758;6.872;2023-04-01T05:30:24;9.37;;;4.73;;
37529;SDS011;23374;52.758;6.872;2023-04-01T05:32:45;7.83;;;4.53;;
37529;SDS011;23374;52.758;6.872;2023-04-01T05:35:06;9.97;;;4.70;;
37529;SDS011;23374;52.758;6.872;2023-04-01T05:37:27;9.17;;;4.70;;
37529;SDS011;23374;52.758;6.872;2023-04-01T05:39:47;9.03;;;4.47;;
37529;SDS011;23374;52.758;6.872;2023-04-01T05:42:07;7.80;;;4.53;;
37529;SDS011;23374;52.758;6.872;2023-04-01T05:44:28;8.97;;;4.57;;
37529;SDS011;23374;52.758;6.872;2023-04-01T05:46:48;8.93;;;4.93;;
37529;SDS011;23374;52.758;6.872;2023-04-01T05:49:09;10.83;;;5.63;;
37529;SDS011;23374;52.758;6.872;2023-04-01T05:51:29;12.73;;;6.03;;
37529;SDS011;23374;52.758;6.872;2023-04-01T05:53:50;14.00;;;5.70;;
37529;SDS011;23374;52.758;6.872;2023-04-01T05:56:10;15.10;;;5.60;;
37529;SDS011;23374;52.758;6.872;2023-04-01T05:58:31;13.93;;;6.27;;
37529;SDS011;23374;52.758;6.872;2023-04-01T06:01:00;10.53;;;5.40;;
37529;SDS011;23374;52.758;6.872;2023-04-01T06:03:30;13.67;;;5.70;;
37529;SDS011;23374;52.758;6.872;2023-04-01T06:05:50;12.33;;;5.93;;
37529;SDS011;23374;52.758;6.872;2023-04-01T06:08:13;15.77;;;6.83;;
37529;SDS011;23374;52.758;6.872;2023-04-01T06:27:07;10.93;;;5.10;;
37529;SDS011;23374;52.758;6.872;2023-04-01T06:40:06;10.40;;;5.40;;
37529;SDS011;23374;52.758;6.872;2023-04-01T06:54:01;9.00;;;4.97;;
37529;SDS011;23374;52.758;6.872;2023-04-01T06:56:30;11.40;;;5.73;;
37529;SDS011;23374;52.758;6.872;2023-04-01T06:59:35;14.80;;;5.63;;
37529;SDS011;23374;52.758;6.872;2023-04-01T07:02:24;11.20;;;5.50;;
37529;SDS011;23374;52.758;6.872;2023-04-01T07:04:53;10.00;;;5.30;;
37529;SDS011;23374;52.758;6.872;2023-04-01T07:07:42;9.77;;;5.30;;
37529;SDS011;23374;52.758;6.872;2023-04-01T07:10:39;11.80;;;6.07;;
37529;SDS011;23374;52.758;6.872;2023-04-01T07:13:12;10.73;;;5.93;;
37529;SDS011;23374;52.758;6.872;2023-04-01T07:15:44;9.13;;;4.73;;
37529;SDS011;23374;52.758;6.872;2023-04-01T07:20:05;10.83;;;5.20;;
37529;SDS011;23374;52.758;6.872;2023-04-01T07:22:52;11.67;;;5.00;;
37529;SDS011;23374;52.758;6.872;2023-04-01T07:25:38;11.63;;;5.87;;
37529;SDS011;23374;52.758;6.872;2023-04-01T07:28:06;18.00;;;5.60;;
37529;SDS011;23374;52.758;6.872;2023-04-01T07:30:42;15.17;;;5.80;;
37529;SDS011;23374;52.758;6.872;2023-04-01T07:35:38;10.47;;;5.00;;
37529;SDS011;23374;52.758;6.872;2023-04-01T07:38:31;8.17;;;4.30;;
37529;SDS011;23374;52.758;6.872;2023-04-01T07:44:39;10.60;;;4.97;;
37529;SDS011;23374;52.758;6.872;2023-04-01T07:51:40;13.73;;;5.83;;
37529;SDS011;23374;52.758;6.872;2023-04-01T07:58:32;14.00;;;5.20;;
37529;SDS011;23374;52.758;6.872;2023-04-01T08:02:06;10.60;;;5.20;;
37529;SDS011;23374;52.758;6.872;2023-04-01T08:15:28;9.13;;;4.70;;
37529;SDS011;23374;52.758;6.872;2023-04-01T08:20:52;10.03;;;5.23;;
37529;SDS011;23374;52.758;6.872;2023-04-01T08:23:31;7.60;;;3.97;;
37529;SDS011;23374;52.758;6.872;2023-04-01T08:29:13;6.33;;;3.37;;
37529;SDS011;23374;52.758;6.872;2023-04-01T08:32:04;7.50;;;3.37;;
37529;SDS011;23374;52.758;6.872;2023-04-01T08:34:43;3.97;;;2.87;;
37529;SDS011;23374;52.758;6.872;2023-04-01T08:37:31;5.20;;;2.63;;
37529;SDS011;23374;52.758;6.872;2023-04-01T08:39:57;3.80;;;2.17;;
37529;SDS011;23374;52.758;6.872;2023-04-01T08:42:50;3.73;;;1.97;;
37529;SDS011;23374;52.758;6.872;2023-04-01T08:45:49;4.77;;;2.30;;
37529;SDS011;23374;52.758;6.872;2023-04-01T08:51:54;3.80;;;1.60;;
37529;SDS011;23374;52.758;6.872;2023-04-01T08:55:20;4.40;;;2.17;;
37529;SDS011;23374;52.758;6.872;2023-04-01T09:12:00;2.47;;;1.20;;
37529;SDS011;23374;52.758;6.872;2023-04-01T09:19:21;2.33;;;1.20;;
37529;SDS011;23374;52.758;6.872;2023-04-01T09:25:15;4.13;;;1.80;;
37529;SDS011;23374;52.758;6.872;2023-04-01T09:43:38;6.43;;;2.60;;
37529;SDS011;23374;52.758;6.872;2023-04-01T09:47:17;4.67;;;2.50;;
37529;SDS011;23374;52.758;6.872;2023-04-01T09:50:32;4.30;;;2.60;;
37529;SDS011;23374;52.758;6.872;2023-04-01T09:55:21;5.50;;;2.83;;
37529;SDS011;23374;52.758;6.872;2023-04-01T10:01:28;11.10;;;3.10;;
37529;SDS011;23374;52.758;6.872;2023-04-01T10:40:17;3.83;;;2.40;;
37529;SDS011;23374;52.758;6.872;2023-04-01T10:50:17;6.00;;;2.80;;
37529;SDS011;23374;52.758;6.872;2023-04-01T10:57:23;5.37;;;2.70;;
37529;SDS011;23374;52.758;6.872;2023-04-01T11:11:53;3.83;;;2.47;;
37529;SDS011;23374;52.758;6.872;2023-04-01T11:14:48;6.33;;;3.00;;
37529;SDS011;23374;52.758;6.872;2023-04-01T11:19:26;5.70;;;3.10;;
37529;SDS011;23374;52.758;6.872;2023-04-01T11:25:47;6.57;;;3.43;;
37529;SDS011;23374;52.758;6.872;2023-04-01T11:37:21;7.60;;;4.20;;
37529;SDS011;23374;52.758;6.872;2023-04-01T11:40:32;8.60;;;4.67;;
37529;SDS011;23374;52.758;6.872;2023-04-01T11:46:11;5.37;;;3.47;;
37529;SDS011;23374;52.758;6.872;2023-04-01T11:55:28;5.93;;;2.60;;
37529;SDS011;23374;52.758;6.872;2023-04-01T12:00:02;3.77;;;2.83;;
37529;SDS011;23374;52.758;6.872;2023-04-01T12:09:49;2.93;;;1.97;;
37529;SDS011;23374;52.758;6.872;2023-04-01T12:12:37;4.20;;;2.17;;
37529;SDS011;23374;52.758;6.872;2023-04-01T12:19:46;3.17;;;2.00;;
37529;SDS011;23374;52.758;6.872;2023-04-01T12:24:29;3.57;;;2.10;;
37529;SDS011;23374;52.758;6.872;2023-04-01T12:27:29;2.33;;;1.73;;
37529;SDS011;23374;52.758;6.872;2023-04-01T12:44:42;1.90;;;1.53;;
37529;SDS011;23374;52.758;6.872;2023-04-01T12:49:07;3.03;;;2.03;;
37529;SDS011;23374;52.758;6.872;2023-04-01T13:10:56;3.20;;;2.00;;
37529;SDS011;23374;52.758;6.872;2023-04-01T13:20:54;3.53;;;2.27;;
37529;SDS011;23374;52.758;6.872;2023-04-01T13:39:24;3.83;;;2.00;;
37529;SDS011;23374;52.758;6.872;2023-04-01T13:42:25;3.97;;;2.17;;
37529;SDS011;23374;52.758;6.872;2023-04-01T13:46:24;3.13;;;2.03;;
37529;SDS011;23374;52.758;6.872;2023-04-01T13:49:23;3.33;;;2.03;;
37529;SDS011;23374;52.758;6.872;2023-04-01T14:05:35;3.20;;;2.07;;
37529;SDS011;23374;52.758;6.872;2023-04-01T14:08:29;3.37;;;2.17;;
37529;SDS011;23374;52.758;6.872;2023-04-01T14:15:18;4.93;;;1.90;;
37529;SDS011;23374;52.758;6.872;2023-04-01T14:28:55;3.70;;;2.23;;
37529;SDS011;23374;52.758;6.872;2023-04-01T14:33:34;1.30;;;0.97;;
37529;SDS011;23374;52.758;6.872;2023-04-01T14:41:30;3.80;;;2.40;;
37529;SDS011;23374;52.758;6.872;2023-04-01T14:44:38;4.13;;;2.90;;
37529;SDS011;23374;52.758;6.872;2023-04-01T14:47:28;4.13;;;2.90;;
37529;SDS011;23374;52.758;6.872;2023-04-01T14:50:21;4.17;;;2.70;;
37529;SDS011;23374;52.758;6.872;2023-04-01T14:52:57;4.93;;;3.40;;
37529;SDS011;23374;52.758;6.872;2023-04-01T14:55:56;5.47;;;3.57;;
37529;SDS011;23374;52.758;6.872;2023-04-01T14:58:20;4.70;;;3.30;;
37529;SDS011;23374;52.758;6.872;2023-04-01T15:01:57;4.97;;;3.33;;
37529;SDS011;23374;52.758;6.872;2023-04-01T15:11:53;5.13;;;3.10;;
37529;SDS011;23374;52.758;6.872;2023-04-01T15:17:47;4.70;;;2.90;;
37529;SDS011;23374;52.758;6.872;2023-04-01T15:20:43;3.77;;;2.57;;
37529;SDS011;23374;52.758;6.872;2023-04-01T15:24:26;4.10;;;2.87;;
37529;SDS011;23374;52.758;6.872;2023-04-01T15:29:11;4.83;;;2.40;;
37529;SDS011;23374;52.758;6.872;2023-04-01T15:31:54;3.13;;;2.23;;
37529;SDS011;23374;52.758;6.872;2023-04-01T15:35:30;2.30;;;1.47;;
37529;SDS011;23374;52.758;6.872;2023-04-01T15:38:56;4.10;;;2.27;;
37529;SDS011;23374;52.758;6.872;2023-04-01T15:43:54;2.93;;;2.07;;
37529;SDS011;23374;52.758;6.872;2023-04-01T15:46:57;3.40;;;2.57;;
37529;SDS011;23374;52.758;6.872;2023-04-01T15:49:42;2.90;;;1.90;;
37529;SDS011;23374;52.758;6.872;2023-04-01T15:55:19;3.47;;;1.93;;
37529;SDS011;23374;52.758;6.872;2023-04-01T16:02:13;2.90;;;2.00;;
37529;SDS011;23374;52.758;6.872;2023-04-01T16:06:01;3.90;;;2.60;;
37529;SDS011;23374;52.758;6.872;2023-04-01T16:15:50;2.90;;;2.00;;
37529;SDS011;23374;52.758;6.872;2023-04-01T16:21:21;2.73;;;2.00;;
37529;SDS011;23374;52.758;6.872;2023-04-01T16:24:03;2.70;;;1.77;;
37529;SDS011;23374;52.758;6.872;2023-04-01T16:26:39;3.00;;;2.17;;
37529;SDS011;23374;52.758;6.872;2023-04-01T16:30:59;2.37;;;1.83;;
37529;SDS011;23374;52.758;6.872;2023-04-01T16:46:46;2.23;;;1.47;;
37529;SDS011;23374;52.758;6.872;2023-04-01T16:50:22;2.20;;;1.70;;
37529;SDS011;23374;52.758;6.872;2023-04-01T16:53:18;2.47;;;1.50;;
37529;SDS011;23374;52.758;6.872;2023-04-01T16:56:17;2.40;;;1.80;;
37529;SDS011;23374;52.758;6.872;2023-04-01T16:58:56;2.70;;;2.10;;
37529;SDS011;23374;52.758;6.872;2023-04-01T17:01:54;3.27;;;2.10;;
37529;SDS011;23374;52.758;6.872;2023-04-01T17:04:58;2.80;;;2.10;;
37529;SDS011;23374;52.758;6.872;2023-04-01T17:09:20;3.30;;;2.23;;
37529;SDS011;23374;52.758;6.872;2023-04-01T17:12:17;3.43;;;2.47;;
37529;SDS011;23374;52.758;6.872;2023-04-01T17:14:59;3.17;;;2.47;;
37529;SDS011;23374;52.758;6.872;2023-04-01T17:18:42;3.37;;;2.73;;
37529;SDS011;23374;52.758;6.872;2023-04-01T17:22:17;4.00;;;2.90;;
37529;SDS011;23374;52.758;6.872;2023-04-01T18:22:34;2.07;;;1.30;;
37529;SDS011;23374;52.758;6.872;2023-04-01T18:25:40;9.17;;;4.77;;
37529;SDS011;23374;52.758;6.872;2023-04-01T18:28:44;6.93;;;4.23;;
37529;SDS011;23374;52.758;6.872;2023-04-01T18:31:36;6.90;;;3.63;;
37529;SDS011;23374;52.758;6.872;2023-04-01T18:37:28;5.13;;;3.53;;
37529;SDS011;23374;52.758;6.872;2023-04-01T18:40:32;7.97;;;4.40;;
37529;SDS011;23374;52.758;6.872;2023-04-01T18:44:47;7.03;;;4.60;;
37529;SDS011;23374;52.758;6.872;2023-04-01T18:47:24;7.87;;;4.50;;
37529;SDS011;23374;52.758;6.872;2023-04-01T18:50:47;7.23;;;4.30;;
37529;SDS011;23374;52.758;6.872;2023-04-01T18:53:59;6.17;;;4.13;;
37529;SDS011;23374;52.758;6.872;2023-04-01T18:57:52;8.10;;;4.00;;
37529;SDS011;23374;52.758;6.872;2023-04-01T19:02:08;6.20;;;4.47;;
37529;SDS011;23374;52.758;6.872;2023-04-01T19:04:50;7.53;;;4.90;;
37529;SDS011;23374;52.758;6.872;2023-04-01T19:07:54;8.20;;;4.40;;
37529;SDS011;23374;52.758;6.872;2023-04-01T19:10:45;4.70;;;3.30;;
37529;SDS011;23374;52.758;6.872;2023-04-01T19:14:00;6.10;;;3.80;;
37529;SDS011;23374;52.758;6.872;2023-04-01T19:24:44;7.63;;;4.67;;
37529;SDS011;23374;52.758;6.872;2023-04-01T19:31:24;7.40;;;4.37;;
37529;SDS011;23374;52.758;6.872;2023-04-01T19:40:51;6.90;;;4.37;;
37529;SDS011;23374;52.758;6.872;2023-04-01T19:45:06;6.37;;;4.27;;
37529;SDS011;23374;52.758;6.872;2023-04-01T19:53:59;6.87;;;4.20;;
37529;SDS011;23374;52.758;6.872;2023-04-01T19:56:41;5.80;;;4.17;;
37529;SDS011;23374;52.758;6.872;2023-04-01T20:00:36;5.97;;;4.13;;
37529;SDS011;23374;52.758;6.872;2023-04-01T20:03:23;8.40;;;5.13;;
37529;SDS011;23374;52.758;6.872;2023-04-01T20:07:35;10.80;;;4.07;;
37529;SDS011;23374;52.758;6.872;2023-04-01T20:10:22;8.87;;;4.67;;
37529;SDS011;23374;52.758;6.872;2023-04-01T20:16:09;8.03;;;5.60;;
37529;SDS011;23374;52.758;6.872;2023-04-01T20:18:52;5.30;;;3.80;;
37529;SDS011;23374;52.758;6.872;2023-04-01T20:22:04;8.13;;;4.87;;
37529;SDS011;23374;52.758;6.872;2023-04-01T20:24:41;5.60;;;4.23;;
37529;SDS011;23374;52.758;6.872;2023-04-01T20:27:18;7.00;;;4.43;;
37529;SDS011;23374;52.758;6.872;2023-04-01T20:45:51;7.53;;;3.53;;
37529;SDS011;23374;52.758;6.872;2023-04-01T20:50:24;7.73;;;5.00;;
37529;SDS011;23374;52.758;6.872;2023-04-01T20:53:16;5.23;;;3.77;;
37529;SDS011;23374;52.758;6.872;2023-04-01T21:10:29;4.40;;;2.97;;
37529;SDS011;23374;52.758;6.872;2023-04-01T21:13:17;7.83;;;5.17;;
37529;SDS011;23374;52.758;6.872;2023-04-01T21:16:15;9.53;;;5.27;;
37529;SDS011;23374;52.758;6.872;2023-04-01T21:24:23;8.80;;;5.20;;
37529;SDS011;23374;52.758;6.872;2023-04-01T21:45:46;8.23;;;5.13;;
37529;SDS011;23374;52.758;6.872;2023-04-01T22:01:37;10.43;;;5.20;;
37529;SDS011;23374;52.758;6.872;2023-04-01T22:07:21;8.83;;;5.27;;
37529;SDS011;23374;52.758;6.872;2023-04-01T22:14:47;9.37;;;5.10;;
37529;SDS011;23374;52.758;6.872;2023-04-01T22:19:42;10.70;;;5.67;;
37529;SDS011;23374;52.758;6.872;2023-04-01T22:40:00;10.50;;;4.87;;
37529;SDS011;23374;52.758;6.872;2023-04-01T22:46:04;10.33;;;4.20;;
37529;SDS011;23374;52.758;6.872;2023-04-01T22:50:15;8.23;;;4.70;;
37529;SDS011;23374;52.758;6.872;2023-04-01T22:52:53;9.47;;;5.43;;
37529;SDS011;23374;52.758;6.872;2023-04-01T22:55:38;7.37;;;4.60;;
37529;SDS011;23374;52.758;6.872;2023-04-01T22:58:17;8.37;;;5.03;;
37529;SDS011;23374;52.758;6.872;2023-04-01T23:00:45;8.50;;;5.13;;
37529;SDS011;23374;52.758;6.872;2023-04-01T23:03:19;10.43;;;4.70;;
37529;SDS011;23374;52.758;6.872;2023-04-01T23:05:56;8.03;;;5.00;;
37529;SDS011;23374;52.758;6.872;2023-04-01T23:10:17;9.50;;;5.50;;
37529;SDS011;23374;52.758;6.872;2023-04-01T23:12:55;6.70;;;3.63;;
37529;SDS011;23374;52.758;6.872;2023-04-01T23:15:22;7.60;;;4.63;;
37529;SDS011;23374;52.758;6.872;2023-04-01T23:21:50;8.40;;;4.27;;
37529;SDS011;23374;52.758;6.872;2023-04-01T23:24:44;7.50;;;4.33;;
37529;SDS011;23374;52.758;6.872;2023-04-01T23:27:23;9.37;;;4.37;;
37529;SDS011;23374;52.758;6.872;2023-04-01T23:29:54;4.87;;;3.47;;
37529;SDS011;23374;52.758;6.872;2023-04-01T23:32:16;9.77;;;4.13;;
37529;SDS011;23374;52.758;6.872;2023-04-01T23:34:50;6.27;;;3.97;;
37529;SDS011;23374;52.758;6.872;2023-04-01T23:37:13;7.13;;;4.43;;
37529;SDS011;23374;52.758;6.872;2023-04-01T23:42:41;8.33;;;4.93;;
37529;SDS011;23374;52.758;6.872;2023-04-01T23:45:04;7.33;;;4.10;;
37529;SDS011;23374;52.758;6.872;2023-04-01T23:47:34;13.50;;;4.13;;
37529;SDS011;23374;52.758;6.872;2023-04-01T23:50:14;8.10;;;4.60;;
37529;SDS011;23374;52.758;6.872;2023-04-01T23:52:48;9.00;;;4.10;;
37529;SDS011;23374;52.758;6.872;2023-04-01T23:55:17;8.10;;;4.07;;
